Salacak — 3FBM4 — position and weather

sailwx.info

Track history (hours):
 
Tides and Currents Weather Stations Pressure Air Temp Water Temp Dewpoint Dewpoint Depression Visibility Wind Speed Wind Dir Waves Ship Positions

Salacak

Last reported at 2015-Jan-29 05:33 UTC. Time now 2015-Jan-29 20:28 UTC.
Position N 41°16' E 029°50'.

Length 126 m; draft 5.2 m.

Type: Cargo ship. MMSI: 373532000.

Date/timePositionNaut miles runAvg speedWind from/ knotsBaromVisibWave heightAir tempDewpointWater temp
2015-Jan-29 05:33N 41°16' E 029°50'1 1.3
2015-Jan-29 04:33N 41°16' E 029°49'2 0.3
2015-Jan-28 21:10N 41°14' E 029°49'2 2.4
2015-Jan-28 20:15N 41°15' E 029°47'2 2.5
2015-Jan-28 19:21N 41°17' E 029°45'2 2.6
2015-Jan-28 18:33N 41°18' E 029°42'2 2.4
2015-Jan-28 17:33N 41°19' E 029°40'7 6.7
2015-Jan-28 16:32N 41°12' E 029°39'0 0.0
2015-Jan-28 15:32N 41°12' E 029°39'0 0.0
2015-Jan-28 14:32N 41°12' E 029°39'0 0.0
2015-Jan-28 13:32N 41°12' E 029°39'0 0.0
2015-Jan-28 12:29N 41°12' E 029°39'0 0.0
2015-Jan-28 11:32N 41°12' E 029°39'0 0.0
2015-Jan-28 10:32N 41°12' E 029°39'0 0.0
2015-Jan-28 09:32N 41°12' E 029°39'0 0.0
2015-Jan-28 08:29N 41°12' E 029°39'0 0.0
2015-Jan-28 07:32N 41°12' E 029°39'0 0.0
2015-Jan-28 06:32N 41°12' E 029°39'0 0.0
2015-Jan-28 05:32N 41°12' E 029°39'0 0.0
2015-Jan-28 04:31N 41°12' E 029°39'0 0.0
2015-Jan-27 22:31N 41°12' E 029°39'0 0.0
2015-Jan-27 21:31N 41°12' E 029°39'0 0.0
2015-Jan-27 20:31N 41°12' E 029°39'0 0.0
2015-Jan-27 19:31N 41°12' E 029°39'0 0.0
2015-Jan-27 18:31N 41°12' E 029°39'0 0.0
2015-Jan-27 17:31N 41°12' E 029°39'0 0.0
2015-Jan-27 16:31N 41°12' E 029°39'0 0.0
2015-Jan-27 15:31N 41°12' E 029°39'0 0.1
2015-Jan-27 14:31N 41°12' E 029°39'0 0.0
2015-Jan-27 13:31N 41°12' E 029°39'0 0.0
2015-Jan-27 12:31N 41°12' E 029°39'0 0.0
2015-Jan-27 11:31N 41°12' E 029°39'0 0.0
2015-Jan-27 10:31N 41°12' E 029°39'0 0.0
2015-Jan-27 09:28N 41°12' E 029°39'0 0.0
2015-Jan-27 08:31N 41°12' E 029°39'0 0.0
2015-Jan-27 07:28N 41°12' E 029°39'0 0.0
2015-Jan-27 06:31N 41°12' E 029°39'0 0.1
2015-Jan-27 05:31N 41°12' E 029°39'0 0.0
2015-Jan-27 04:31N 41°12' E 029°39'0 0.0
2015-Jan-26 22:31N 41°12' E 029°39'0 0.0
2015-Jan-26 21:28N 41°12' E 029°39'0 0.0
2015-Jan-26 20:34N 41°12' E 029°39'0 0.0
2015-Jan-26 19:33N 41°12' E 029°39'0 0.0
2015-Jan-26 18:33N 41°12' E 029°39'0 0.0
2015-Jan-26 17:33N 41°12' E 029°39'2 2.3
2015-Jan-26 16:33N 41°12' E 029°42'1 0.0
2015-Jan-24 19:33N 41°13' E 029°41'1111.5
2015-Jan-24 18:33N 41°14' E 029°26'  
2015-Jan-21 17:16N 40°28' E 026°51'  
Track history (hours):
 
Tides and Currents Weather Stations Pressure Air Temp Water Temp Dewpoint Dewpoint Depression Visibility Wind Speed Wind Dir Waves Ship Positions

Salacak

Last reported at 2015-Jan-29 05:33 UTC. Time now 2015-Jan-29 20:28 UTC.
Position N 41°16' E 029°50'.

Length 126 m; draft 5.2 m.

Type: Cargo ship. MMSI: 373532000.

Date/timePositionNaut miles runAvg speedWind from/ knotsBaromVisibWave heightAir tempDewpointWater temp
2015-Jan-29 05:33N 41°16' E 029°50'1 1.3
2015-Jan-29 04:33N 41°16' E 029°49'2 0.3
2015-Jan-28 21:10N 41°14' E 029°49'2 2.4
2015-Jan-28 20:15N 41°15' E 029°47'2 2.5
2015-Jan-28 19:21N 41°17' E 029°45'2 2.6
2015-Jan-28 18:33N 41°18' E 029°42'2 2.4
2015-Jan-28 17:33N 41°19' E 029°40'7 6.7
2015-Jan-28 16:32N 41°12' E 029°39'0 0.0
2015-Jan-28 15:32N 41°12' E 029°39'0 0.0
2015-Jan-28 14:32N 41°12' E 029°39'0 0.0
2015-Jan-28 13:32N 41°12' E 029°39'0 0.0
2015-Jan-28 12:29N 41°12' E 029°39'0 0.0
2015-Jan-28 11:32N 41°12' E 029°39'0 0.0
2015-Jan-28 10:32N 41°12' E 029°39'0 0.0
2015-Jan-28 09:32N 41°12' E 029°39'0 0.0
2015-Jan-28 08:29N 41°12' E 029°39'0 0.0
2015-Jan-28 07:32N 41°12' E 029°39'0 0.0
2015-Jan-28 06:32N 41°12' E 029°39'0 0.0
2015-Jan-28 05:32N 41°12' E 029°39'0 0.0
2015-Jan-28 04:31N 41°12' E 029°39'0 0.0
2015-Jan-27 22:31N 41°12' E 029°39'0 0.0
2015-Jan-27 21:31N 41°12' E 029°39'0 0.0
2015-Jan-27 20:31N 41°12' E 029°39'0 0.0
2015-Jan-27 19:31N 41°12' E 029°39'0 0.0
2015-Jan-27 18:31N 41°12' E 029°39'0 0.0
2015-Jan-27 17:31N 41°12' E 029°39'0 0.0
2015-Jan-27 16:31N 41°12' E 029°39'0 0.0
2015-Jan-27 15:31N 41°12' E 029°39'0 0.1
2015-Jan-27 14:31N 41°12' E 029°39'0 0.0
2015-Jan-27 13:31N 41°12' E 029°39'0 0.0
2015-Jan-27 12:31N 41°12' E 029°39'0 0.0
2015-Jan-27 11:31N 41°12' E 029°39'0 0.0
2015-Jan-27 10:31N 41°12' E 029°39'0 0.0
2015-Jan-27 09:28N 41°12' E 029°39'0 0.0
2015-Jan-27 08:31N 41°12' E 029°39'0 0.0
2015-Jan-27 07:28N 41°12' E 029°39'0 0.0
2015-Jan-27 06:31N 41°12' E 029°39'0 0.1
2015-Jan-27 05:31N 41°12' E 029°39'0 0.0
2015-Jan-27 04:31N 41°12' E 029°39'0 0.0
2015-Jan-26 22:31N 41°12' E 029°39'0 0.0
2015-Jan-26 21:28N 41°12' E 029°39'0 0.0
2015-Jan-26 20:34N 41°12' E 029°39'0 0.0
2015-Jan-26 19:33N 41°12' E 029°39'0 0.0
2015-Jan-26 18:33N 41°12' E 029°39'0 0.0
2015-Jan-26 17:33N 41°12' E 029°39'2 2.3
2015-Jan-26 16:33N 41°12' E 029°42'1 0.0
2015-Jan-24 19:33N 41°13' E 029°41'1111.5
2015-Jan-24 18:33N 41°14' E 029°26'  
2015-Jan-21 17:16N 40°28' E 026°51'  

Dump ship's entire track history